Ana Sayfa
METAR-TAF:

METAR-TAF

Havaalanları :

Pyongyang Sunan Uluslararası Havalimanı

Pyongyang, Kuzey Kore

Enlem: 39-02N, Boylam: 125-47E, yükseklik: 36 m

METAR: eksik

Saat: 08:47 (00:17 UTC)

Tahmin

Rapor saat 21:00 UTC de 3 saat ve 17 dakika önce yapıldı.
Ayın 21'si saat 00 UTC'den ayın 21'si saat 24 UTC'ye kadar geçerli Tahmin
Rüzgar kuzeybatıdan 6 kt
Görüş mesafesi 10 km veya daha fazla
3300 ft yükseklikte parçalı çok bulutlu
Dönüşüyor
ayın 21'si saat 03 UTC'den ayın 21'si saat 05 UTC'ye kadar
Rüzgar kuzey/kuzeybatıdan 10 kt
Görüş mesafesi 10 km veya daha fazla
1500 m altında bulut yok ve kümülonimbus yok

TAF: ZKPY 202100Z 2100/2124 32003MPS 9999 BKN033 BECMG 2103/2105 34005MPS CAVOK TX06/2106Z TNM05/2121Z

4.000'den fazla havaalanı için hava durumu gözlemleri ve tahminleri (METAR ve TAF raporları).

Kullanılabilir istasyonlar harita üzerinde sarı ve kırmızı noktalarla gösterilir.

İstasyonun adını görmek için fareyi noktanın üzerinde gezdirin.

Sonrasında hava gözlem ve tahminlerini görmek için tıklayın.

Haritayı değiştirmek için: yaklaştırmak için siyah artı işaretli yeşil düğmeye ve uzaklaştırmak için de eksi işaretli düğmeye hızla tıklayın; bitişik haritalar için yeşil okları kullanın.


METAR-TAF: